createdAt,value
2023-01-07T00:00:29.593Z,101332.13
2023-01-07T00:02:59.481Z,101339.25
2023-01-07T00:05:29.280Z,101334.06
2023-01-07T00:07:59.054Z,101329.84
2023-01-07T00:10:28.783Z,101326.47
2023-01-07T00:13:01.227Z,101319.63
2023-01-07T00:15:31.123Z,101315.34
2023-01-07T00:18:01.098Z,101319.00
2023-01-07T00:20:31.178Z,101320.94
2023-01-07T00:23:00.883Z,101325.38
2023-01-07T00:25:31.586Z,101322.88
2023-01-07T00:28:04.847Z,101323.97
2023-01-07T00:30:34.659Z,101324.06
2023-01-07T00:33:07.578Z,101324.19
2023-01-07T00:35:38.590Z,101324.31
2023-01-07T00:38:08.833Z,101324.44
2023-01-07T00:40:38.659Z,101321.13
2023-01-07T00:43:11.971Z,101313.38
2023-01-07T00:45:41.841Z,101310.00
2023-01-07T00:48:12.660Z,101298.81
2023-01-07T00:50:42.959Z,101303.28
2023-01-07T00:53:14.001Z,101298.16
2023-01-07T00:55:43.995Z,101286.97
2023-01-07T00:58:18.171Z,101290.59
2023-01-07T01:00:47.973Z,101286.31
2023-01-07T01:03:18.044Z,101286.44
2023-01-07T01:05:47.853Z,101288.41
2023-01-07T01:08:18.121Z,101279.75
2023-01-07T01:10:47.991Z,101274.69
2023-01-07T01:13:21.452Z,101280.06
2023-01-07T01:15:52.361Z,101276.69
2023-01-07T01:18:22.141Z,101276.78
2023-01-07T01:20:52.048Z,101281.28
2023-01-07T01:23:21.877Z,101272.63
2023-01-07T01:25:51.649Z,101272.75
2023-01-07T01:28:24.137Z,101276.41
2023-01-07T01:30:57.744Z,101272.03
2023-01-07T01:33:27.630Z,101272.13
2023-01-07T01:35:57.441Z,101271.34
2023-01-07T01:38:27.392Z,101268.75
2023-01-07T01:40:57.145Z,101269.72
2023-01-07T01:43:35.038Z,101269.84
2023-01-07T01:46:08.198Z,101269.91
2023-01-07T01:48:41.516Z,101266.50
2023-01-07T01:51:14.056Z,101261.28
2023-01-07T01:53:44.095Z,101258.75
2023-01-07T01:56:17.468Z,101260.50
2023-01-07T01:58:53.091Z,101261.56
2023-01-07T02:01:23.128Z,101261.59
2023-01-07T02:03:54.502Z,101260.78
2023-01-07T02:06:27.131Z,101258.25
2023-01-07T02:08:56.891Z,101266.22
2023-01-07T02:11:36.066Z,101260.19
2023-01-07T02:14:19.802Z,101259.41
2023-01-07T02:16:59.117Z,101257.69
2023-01-07T02:20:07.936Z,101261.31
2023-01-07T02:23:06.016Z,101257.91
2023-01-07T02:26:11.746Z,101249.19
2023-01-07T02:29:05.547Z,101245.72
2023-01-07T02:32:00.421Z,101237.03
2023-01-07T02:34:38.152Z,101237.09
2023-01-07T02:37:16.728Z,101238.88
2023-01-07T02:39:57.678Z,101243.34
2023-01-07T02:42:40.068Z,101245.09
2023-01-07T02:45:17.709Z,101246.06
2023-01-07T02:47:54.225Z,101251.44
2023-01-07T02:50:24.206Z,101238.34
2023-01-07T02:52:53.955Z,101241.03
2023-01-07T02:55:28.192Z,101231.38
2023-01-07T02:58:28.068Z,101222.66
2023-01-07T03:01:21.243Z,101227.97
2023-01-07T03:04:12.738Z,101228.13
2023-01-07T03:06:57.784Z,101228.13
2023-01-07T03:09:36.605Z,101223.66
2023-01-07T03:12:14.863Z,101221.09
2023-01-07T03:14:49.475Z,101223.75
2023-01-07T03:17:23.515Z,101221.19
2023-01-07T03:20:00.607Z,101224.69
2023-01-07T03:22:32.879Z,101223.81
2023-01-07T03:25:04.786Z,101220.31
2023-01-07T03:27:38.565Z,101219.47
2023-01-07T03:30:13.176Z,101208.06
2023-01-07T03:32:47.528Z,101218.59
2023-01-07T03:35:21.919Z,101210.75
2023-01-07T03:37:53.408Z,101207.22
2023-01-07T03:40:24.447Z,101203.69
2023-01-07T03:42:51.582Z,101208.94
2023-01-07T03:45:24.203Z,101201.97
2023-01-07T03:47:56.567Z,101200.22
2023-01-07T03:50:29.018Z,101197.59
2023-01-07T03:52:59.042Z,101190.66
2023-01-07T03:55:29.023Z,101188.03
2023-01-07T03:57:58.929Z,101193.28
2023-01-07T04:00:28.961Z,101187.16
2023-01-07T04:02:58.753Z,101185.41
2023-01-07T04:05:31.379Z,101188.13
2023-01-07T04:08:01.574Z,101182.84
2023-01-07T04:10:31.451Z,101185.53
2023-01-07T04:13:01.281Z,101178.56
2023-01-07T04:15:31.051Z,101174.19
2023-01-07T04:18:00.881Z,101168.03
2023-01-07T04:20:33.330Z,101177.69
2023-01-07T04:23:03.347Z,101167.09
2023-01-07T04:25:34.547Z,101155.69
2023-01-07T04:28:04.705Z,101157.34
2023-01-07T04:30:34.531Z,101163.53
2023-01-07T04:33:04.411Z,101152.06
2023-01-07T04:35:37.351Z,101145.94
2023-01-07T04:38:07.156Z,101148.56
2023-01-07T04:40:36.942Z,101146.00
2023-01-07T04:43:06.976Z,101132.84
2023-01-07T04:45:36.777Z,101145.16
2023-01-07T04:48:07.075Z,101139.78
2023-01-07T04:50:39.862Z,101140.72
2023-01-07T04:53:09.727Z,101143.25
2023-01-07T04:55:39.572Z,101144.94
2023-01-07T04:58:09.459Z,101143.19
2023-01-07T05:00:39.988Z,101156.34
2023-01-07T05:03:10.053Z,101147.56
2023-01-07T05:05:42.471Z,101144.09
2023-01-07T05:08:12.233Z,101141.34
2023-01-07T05:10:41.983Z,101139.56
2023-01-07T05:13:18.035Z,101143.91
2023-01-07T05:15:47.905Z,101130.72
2023-01-07T05:18:18.142Z,101138.63
2023-01-07T05:20:51.654Z,101135.91
2023-01-07T05:23:21.435Z,101138.47
2023-01-07T05:25:51.216Z,101137.56
2023-01-07T05:28:20.967Z,101127.03
2023-01-07T05:30:50.878Z,101136.78
2023-01-07T05:33:20.787Z,101126.16
2023-01-07T05:35:53.263Z,101132.31
2023-01-07T05:38:23.081Z,101127.06
2023-01-07T05:40:53.154Z,101129.75
2023-01-07T05:43:23.182Z,101126.28
2023-01-07T05:45:53.029Z,101128.91
2023-01-07T05:48:22.744Z,101123.63
2023-01-07T05:50:55.199Z,101118.38
2023-01-07T05:53:24.998Z,101120.97
2023-01-07T05:55:58.826Z,101124.50
2023-01-07T05:58:30.161Z,101115.72
2023-01-07T06:00:59.996Z,101110.44
2023-01-07T06:03:29.843Z,101106.00
2023-01-07T06:06:07.242Z,101105.97
2023-01-07T06:08:37.305Z,101105.97
2023-01-07T06:11:08.024Z,101100.69
2023-01-07T06:13:38.562Z,101095.38
2023-01-07T06:16:10.914Z,101096.22
2023-01-07T06:18:40.727Z,101102.38
2023-01-07T06:21:13.510Z,101104.06
2023-01-07T06:23:43.623Z,101097.00
2023-01-07T06:26:13.403Z,101098.69
2023-01-07T06:28:43.214Z,101097.78
2023-01-07T06:31:13.520Z,101091.56
2023-01-07T06:33:45.986Z,101088.06
2023-01-07T06:36:18.414Z,101080.97
2023-01-07T06:38:48.251Z,101086.22
2023-01-07T06:41:18.145Z,101082.66
2023-01-07T06:43:48.028Z,101079.13
2023-01-07T06:46:18.161Z,101084.38
2023-01-07T06:48:47.905Z,101072.03
2023-01-07T06:51:20.295Z,101082.44
2023-01-07T06:53:50.178Z,101075.41
2023-01-07T06:56:19.886Z,101071.81
2023-01-07T06:58:49.656Z,101071.72
2023-01-07T07:01:19.458Z,101075.25
2023-01-07T07:03:49.231Z,101072.50
2023-01-07T07:06:21.575Z,101068.91
2023-01-07T07:08:51.333Z,101074.09
2023-01-07T07:11:21.451Z,101068.75
2023-01-07T07:13:52.282Z,101074.00
2023-01-07T07:16:24.872Z,101064.25
2023-01-07T07:18:55.810Z,101061.56
2023-01-07T07:21:28.256Z,101065.09
2023-01-07T07:23:58.032Z,101063.22
2023-01-07T07:26:27.916Z,101068.50
2023-01-07T07:28:57.743Z,101066.78
2023-01-07T07:31:27.569Z,101063.22
2023-01-07T07:33:57.309Z,101063.22
2023-01-07T07:36:29.939Z,101060.59
2023-01-07T07:38:59.911Z,101061.63
2023-01-07T07:41:29.839Z,101053.66
2023-01-07T07:43:59.643Z,101061.63
2023-01-07T07:46:29.578Z,101057.25
2023-01-07T07:48:59.370Z,101057.25
2023-01-07T07:51:31.700Z,101054.69
2023-01-07T07:54:01.793Z,101045.06
2023-01-07T07:56:31.499Z,101037.16
2023-01-07T07:59:01.257Z,101041.56
2023-01-07T08:01:31.217Z,101033.66
2023-01-07T08:04:01.103Z,101038.00
2023-01-07T08:06:34.416Z,101038.00
2023-01-07T08:09:04.256Z,101036.22
2023-01-07T08:11:34.036Z,101030.88
2023-01-07T08:14:03.910Z,101029.97
2023-01-07T08:16:33.727Z,101033.47
2023-01-07T08:19:03.446Z,101024.72
2023-01-07T08:21:35.817Z,101023.84
2023-01-07T08:24:05.999Z,101032.59
2023-01-07T08:26:36.836Z,101034.38
2023-01-07T08:29:06.586Z,101040.47
2023-01-07T08:31:36.338Z,101037.00
2023-01-07T08:34:06.181Z,101036.13
2023-01-07T08:36:38.654Z,101035.25
2023-01-07T08:39:08.673Z,101025.59
2023-01-07T08:41:38.471Z,101032.63
2023-01-07T08:44:08.789Z,101031.03
2023-01-07T08:46:38.807Z,101023.16
2023-01-07T08:49:08.553Z,101024.13
2023-01-07T08:51:40.952Z,101018.88
2023-01-07T08:54:10.673Z,101019.81
2023-01-07T08:56:40.394Z,101021.59
2023-01-07T08:59:10.252Z,101019.09
2023-01-07T09:01:40.235Z,101009.50
2023-01-07T09:04:10.078Z,101003.44
2023-01-07T09:06:43.592Z,101007.09
2023-01-07T09:09:15.152Z,101007.13
2023-01-07T09:11:45.059Z,101002.78
2023-01-07T09:14:14.956Z,101006.31
2023-01-07T09:16:44.925Z,100997.56
2023-01-07T09:19:14.741Z,101003.72
2023-01-07T09:21:47.466Z,101000.25
2023-01-07T09:24:17.488Z,101002.91
2023-01-07T09:26:47.281Z,100998.59
2023-01-07T09:29:17.021Z,101001.25
2023-01-07T09:31:47.108Z,101007.47
2023-01-07T09:34:16.933Z,100990.72
2023-01-07T09:36:49.335Z,100999.56
2023-01-07T09:39:19.116Z,100991.59
2023-01-07T09:41:57.891Z,100998.69
2023-01-07T09:44:40.992Z,100995.16
2023-01-07T09:47:12.578Z,100993.41
2023-01-07T09:49:44.227Z,101001.34
2023-01-07T09:52:20.833Z,100990.88
2023-01-07T09:54:55.087Z,100992.63
2023-01-07T09:57:24.857Z,100994.38
2023-01-07T09:59:54.627Z,100990.00
2023-01-07T10:02:37.539Z,100996.22
2023-01-07T10:05:23.695Z,100981.22
2023-01-07T10:08:31.209Z,100988.25
2023-01-07T10:10:57.864Z,100988.19
2023-01-07T10:13:50.389Z,100982.03
2023-01-07T10:16:26.030Z,100975.00
2023-01-07T10:19:05.992Z,100967.09
2023-01-07T10:21:42.999Z,100964.50
2023-01-07T10:24:22.028Z,100957.53
2023-01-07T10:26:54.957Z,100947.00
2023-01-07T10:29:32.022Z,100946.13
2023-01-07T10:32:09.839Z,100940.88
2023-01-07T10:34:48.058Z,100931.31
2023-01-07T10:37:25.123Z,100932.13
2023-01-07T10:40:12.024Z,100918.97
2023-01-07T10:42:48.787Z,100919.91
2023-01-07T10:45:47.315Z,100919.03
2023-01-07T10:48:46.301Z,100913.81
2023-01-07T10:51:53.021Z,100909.44
2023-01-07T10:54:44.849Z,100909.38
2023-01-07T10:57:22.734Z,100898.88
2023-01-07T10:59:55.951Z,100900.66
2023-01-07T11:02:31.140Z,100891.06
2023-01-07T11:05:02.378Z,100893.81
2023-01-07T11:07:44.043Z,100889.50
2023-01-07T11:10:19.486Z,100879.88
2023-01-07T11:12:56.381Z,100865.91
2023-01-07T11:15:31.194Z,100870.31
2023-01-07T11:18:12.394Z,100852.75
2023-01-07T11:20:47.987Z,100855.47
2023-01-07T11:23:27.908Z,100856.44
2023-01-07T11:26:13.259Z,100845.06
2023-01-07T11:28:53.530Z,100837.19
2023-01-07T11:31:27.659Z,100827.59
2023-01-07T11:34:02.244Z,100815.41
2023-01-07T11:36:47.376Z,100816.44
2023-01-07T11:39:26.011Z,100811.31
2023-01-07T11:41:58.863Z,100811.41
2023-01-07T11:44:31.520Z,100793.97
2023-01-07T11:47:01.454Z,100795.00
2023-01-07T11:49:33.843Z,100788.91
2023-01-07T11:52:07.938Z,100782.91
2023-01-07T11:54:37.838Z,100783.00
2023-01-07T11:57:28.380Z,100774.28
2023-01-07T12:00:22.951Z,100777.88
2023-01-07T12:03:13.518Z,100772.63
2023-01-07T12:05:45.212Z,100772.53
2023-01-07T12:08:24.043Z,100762.94
2023-01-07T12:10:58.355Z,100752.47
2023-01-07T12:13:30.803Z,100750.75
2023-01-07T12:16:05.829Z,100744.56
2023-01-07T12:18:56.918Z,100730.53
2023-01-07T12:21:37.827Z,100724.38
2023-01-07T12:24:45.321Z,100715.59
2023-01-07T12:27:26.006Z,100713.84
2023-01-07T12:30:23.061Z,100709.41
2023-01-07T12:33:09.144Z,100703.25
2023-01-07T12:35:42.822Z,100693.56
2023-01-07T12:38:17.422Z,100685.63
2023-01-07T12:40:51.670Z,100681.22
2023-01-07T12:43:27.858Z,100674.13
2023-01-07T12:46:00.812Z,100667.97
2023-01-07T12:48:40.280Z,100659.13
2023-01-07T12:51:16.735Z,100651.28
2023-01-07T12:53:50.567Z,100647.78
2023-01-07T12:56:23.965Z,100638.06
2023-01-07T12:58:58.073Z,100628.47
2023-01-07T13:01:37.708Z,100623.25
2023-01-07T13:04:23.734Z,100619.75
2023-01-07T13:06:58.254Z,100624.22
2023-01-07T13:09:32.874Z,100615.47
2023-01-07T13:12:42.506Z,100613.78
2023-01-07T13:15:26.884Z,100611.16
2023-01-07T13:17:59.759Z,100606.78
2023-01-07T13:20:55.665Z,100601.56
2023-01-07T13:23:30.611Z,100600.63
2023-01-07T13:26:16.370Z,100599.69
2023-01-07T13:29:08.213Z,100597.91
2023-01-07T13:32:17.256Z,100587.34
2023-01-07T13:35:01.188Z,100584.69
2023-01-07T13:37:56.166Z,100580.25
2023-01-07T13:40:47.023Z,100567.88
2023-01-07T13:43:30.488Z,100573.00
2023-01-07T13:46:04.966Z,100562.47
2023-01-07T13:48:37.258Z,100570.31
2023-01-07T13:51:09.806Z,100560.59
2023-01-07T13:53:55.977Z,100557.09
2023-01-07T13:56:40.531Z,100555.28
2023-01-07T13:59:32.969Z,100544.69
2023-01-07T14:02:22.208Z,100540.28
2023-01-07T14:04:54.828Z,100529.69
2023-01-07T14:07:26.046Z,100532.25
2023-01-07T14:10:00.059Z,100532.25
2023-01-07T14:13:04.847Z,100522.53
2023-01-07T14:16:02.934Z,100517.28
2023-01-07T14:19:04.271Z,100509.31
2023-01-07T14:22:09.793Z,100511.06
2023-01-07T14:25:06.169Z,100505.78
2023-01-07T14:27:51.955Z,100497.78
2023-01-07T14:30:25.084Z,100493.31
2023-01-07T14:33:01.470Z,100484.50
2023-01-07T14:35:42.781Z,100487.06
2023-01-07T14:38:48.473Z,100480.03
2023-01-07T14:41:21.540Z,100471.22
2023-01-07T14:44:03.123Z,100473.84
2023-01-07T14:46:49.608Z,100471.22
2023-01-07T14:49:35.425Z,100455.34
2023-01-07T14:52:16.465Z,100450.94
2023-01-07T14:55:08.660Z,100459.69
2023-01-07T14:57:49.608Z,100456.09
2023-01-07T15:00:44.966Z,100455.19
2023-01-07T15:03:45.410Z,100449.84
2023-01-07T15:06:25.588Z,100448.00
2023-01-07T15:09:15.045Z,100435.66
2023-01-07T15:11:58.870Z,100443.50
2023-01-07T15:14:48.403Z,100450.47
2023-01-07T15:17:19.861Z,100447.81
2023-01-07T15:19:49.720Z,100448.69
2023-01-07T15:22:46.853Z,100441.63
2023-01-07T15:25:28.957Z,100429.28
2023-01-07T15:28:06.417Z,100437.16
2023-01-07T15:30:50.816Z,100427.41
2023-01-07T15:33:39.300Z,100429.06
2023-01-07T15:36:14.192Z,100424.63
2023-01-07T15:38:49.516Z,100417.53
2023-01-07T15:41:30.053Z,100417.50
2023-01-07T15:44:00.790Z,100416.56
2023-01-07T15:46:34.767Z,100414.78
2023-01-07T15:49:23.863Z,100410.34
2023-01-07T15:51:57.076Z,100403.31
2023-01-07T15:54:35.569Z,100406.00
2023-01-07T15:57:10.338Z,100410.34
2023-01-07T15:59:46.474Z,100405.03
2023-01-07T16:02:28.003Z,100399.75
2023-01-07T16:05:01.203Z,100400.56
2023-01-07T16:07:37.144Z,100394.44
2023-01-07T16:10:09.274Z,100385.69
2023-01-07T16:12:40.929Z,100394.44
2023-01-07T16:15:32.665Z,100389.16
2023-01-07T16:18:07.415Z,100385.69
2023-01-07T16:20:39.465Z,100388.31
2023-01-07T16:23:22.508Z,100382.16
2023-01-07T16:25:59.718Z,100376.03
2023-01-07T16:28:33.850Z,100382.22
2023-01-07T16:31:06.793Z,100380.53
2023-01-07T16:33:40.161Z,100366.50
2023-01-07T16:36:15.818Z,100365.69
2023-01-07T16:38:46.943Z,100356.91
2023-01-07T16:41:23.795Z,100364.84
2023-01-07T16:43:55.536Z,100353.47
2023-01-07T16:46:29.836Z,100350.91
2023-01-07T16:49:23.860Z,100348.28
2023-01-07T16:51:55.340Z,100344.72
2023-01-07T16:54:34.671Z,100348.28
2023-01-07T16:57:07.059Z,100343.84
2023-01-07T16:59:38.825Z,100343.00
2023-01-07T17:02:19.327Z,100335.13
2023-01-07T17:04:51.889Z,100334.19
2023-01-07T17:07:25.065Z,100333.31
2023-01-07T17:09:56.697Z,100331.56
2023-01-07T17:12:31.478Z,100319.28
2023-01-07T17:15:01.333Z,100321.03
2023-01-07T17:17:34.378Z,100311.31
2023-01-07T17:20:19.899Z,100316.59
2023-01-07T17:22:50.073Z,100315.66
2023-01-07T17:25:28.402Z,100316.59
2023-01-07T17:28:01.114Z,100310.34
2023-01-07T17:30:36.563Z,100308.56
2023-01-07T17:33:06.633Z,100298.00
2023-01-07T17:35:47.550Z,100297.13
2023-01-07T17:38:17.974Z,100291.00
2023-01-07T17:40:48.616Z,100290.09
2023-01-07T17:43:32.982Z,100289.19
2023-01-07T17:46:03.848Z,100288.28
2023-01-07T17:48:33.827Z,100285.59
2023-01-07T17:51:07.325Z,100285.59
2023-01-07T17:53:43.839Z,100274.22
2023-01-07T17:56:13.859Z,100274.22
2023-01-07T17:58:44.898Z,100262.88
2023-01-07T18:01:16.871Z,100264.63
2023-01-07T18:03:48.623Z,100271.59
2023-01-07T18:06:22.749Z,100270.75
2023-01-07T18:08:54.187Z,100262.88
2023-01-07T18:11:38.641Z,100270.75
2023-01-07T18:14:08.445Z,100261.97
2023-01-07T18:16:38.324Z,100262.88
2023-01-07T18:19:08.206Z,100261.06
2023-01-07T18:21:40.650Z,100264.56
2023-01-07T18:24:10.783Z,100265.44
2023-01-07T18:26:40.572Z,100268.97
2023-01-07T18:29:11.972Z,100257.53
2023-01-07T18:31:44.467Z,100266.25
2023-01-07T18:34:16.718Z,100246.09
2023-01-07T18:36:49.095Z,100249.53
2023-01-07T18:39:21.187Z,100255.59
2023-01-07T18:41:51.764Z,100247.66
2023-01-07T18:44:22.570Z,100244.97
2023-01-07T18:46:52.552Z,100230.06
2023-01-07T18:49:22.438Z,100238.78
2023-01-07T18:51:55.025Z,100231.75
2023-01-07T18:54:24.884Z,100223.00
2023-01-07T18:56:54.711Z,100224.69
2023-01-07T18:59:24.645Z,100221.19
2023-01-07T19:01:58.162Z,100209.75
2023-01-07T19:04:28.506Z,100212.44
2023-01-07T19:07:03.417Z,100208.91
2023-01-07T19:09:33.437Z,100200.09
2023-01-07T19:12:03.287Z,100198.34
2023-01-07T19:14:33.095Z,100199.22
2023-01-07T19:17:04.164Z,100198.34
2023-01-07T19:19:40.070Z,100207.13
2023-01-07T19:22:20.307Z,100197.47
2023-01-07T19:24:50.151Z,100197.47
2023-01-07T19:27:20.006Z,100200.03
2023-01-07T19:29:49.831Z,100193.91
2023-01-07T19:32:19.905Z,100190.41
2023-01-07T19:34:52.461Z,100191.22
2023-01-07T19:37:24.835Z,100195.59
2023-01-07T19:39:54.595Z,100185.09
2023-01-07T19:42:24.704Z,100180.69
2023-01-07T19:44:54.451Z,100171.94
2023-01-07T19:47:24.335Z,100175.41
2023-01-07T19:49:54.063Z,100171.00
2023-01-07T19:52:26.780Z,100172.75
2023-01-07T19:54:56.537Z,100176.22
2023-01-07T19:57:26.324Z,100172.66
2023-01-07T19:59:56.072Z,100176.16
2023-01-07T20:02:26.026Z,100155.13
2023-01-07T20:04:56.072Z,100162.13
2023-01-07T20:07:34.008Z,100177.03
2023-01-07T20:10:03.833Z,100177.88
2023-01-07T20:12:33.593Z,100186.66
2023-01-07T20:15:03.319Z,100186.66
2023-01-07T20:17:33.359Z,100182.28
2023-01-07T20:20:03.229Z,100174.44
2023-01-07T20:22:35.650Z,100171.81
2023-01-07T20:25:05.460Z,100169.19
2023-01-07T20:27:35.215Z,100172.69
2023-01-07T20:30:05.082Z,100156.03
2023-01-07T20:32:34.913Z,100158.63
2023-01-07T20:35:04.895Z,100164.75
2023-01-07T20:37:37.670Z,100153.38
2023-01-07T20:40:08.544Z,100153.41
2023-01-07T20:42:38.280Z,100151.63
2023-01-07T20:45:09.839Z,100162.13
2023-01-07T20:47:39.631Z,100162.19
2023-01-07T20:50:10.299Z,100161.31
2023-01-07T20:52:42.684Z,100153.38
2023-01-07T20:55:12.840Z,100142.84
2023-01-07T20:57:42.590Z,100141.09
2023-01-07T21:00:14.041Z,100135.84
2023-01-07T21:02:43.963Z,100141.22
2023-01-07T21:05:13.838Z,100142.09
2023-01-07T21:07:46.437Z,100143.84
2023-01-07T21:10:16.508Z,100136.84
2023-01-07T21:12:46.565Z,100140.41
2023-01-07T21:15:17.831Z,100142.16
2023-01-07T21:17:47.945Z,100136.00
2023-01-07T21:20:18.656Z,100140.44
2023-01-07T21:22:51.109Z,100134.31
2023-01-07T21:25:20.980Z,100135.13
2023-01-07T21:27:51.187Z,100125.50
2023-01-07T21:30:21.094Z,100119.38
2023-01-07T21:32:50.949Z,100126.44
2023-01-07T21:35:20.810Z,100122.00
2023-01-07T21:37:55.162Z,100118.50
2023-01-07T21:40:25.657Z,100111.50
2023-01-07T21:42:55.573Z,100107.13
2023-01-07T21:45:25.506Z,100105.41
2023-01-07T21:47:55.450Z,100106.28
2023-01-07T21:50:25.504Z,100103.72
2023-01-07T21:52:58.066Z,100101.09
2023-01-07T21:55:27.900Z,100087.09
2023-01-07T21:57:57.927Z,100082.75
2023-01-07T22:00:28.815Z,100097.69
2023-01-07T22:02:58.707Z,100080.16
2023-01-07T22:05:28.597Z,100095.97
2023-01-07T22:08:01.501Z,100089.81
2023-01-07T22:10:31.275Z,100090.72
2023-01-07T22:13:01.050Z,100092.44
2023-01-07T22:15:31.141Z,100093.34
2023-01-07T22:18:00.927Z,100090.72
2023-01-07T22:20:30.966Z,100090.72
2023-01-07T22:23:03.379Z,100094.22
2023-01-07T22:25:33.300Z,100092.44
2023-01-07T22:28:05.639Z,100094.16
2023-01-07T22:30:37.432Z,100094.16
2023-01-07T22:33:07.161Z,100102.88
2023-01-07T22:35:38.033Z,100099.44
2023-01-07T22:38:11.872Z,100093.25
2023-01-07T22:40:42.583Z,100098.50
2023-01-07T22:43:17.438Z,100095.88
2023-01-07T22:45:51.071Z,100096.72
2023-01-07T22:48:24.196Z,100083.56
2023-01-07T22:50:55.960Z,100094.06
2023-01-07T22:53:28.587Z,100082.72
2023-01-07T22:55:58.728Z,100087.06
2023-01-07T22:58:28.496Z,100087.06
2023-01-07T23:01:19.254Z,100082.63
2023-01-07T23:03:49.412Z,100080.00
2023-01-07T23:06:19.908Z,100074.75
2023-01-07T23:08:52.458Z,100073.88
2023-01-07T23:11:34.479Z,100075.56
2023-01-07T23:14:05.121Z,100069.41
2023-01-07T23:16:34.971Z,100066.78
2023-01-07T23:19:04.777Z,100062.41
2023-01-07T23:21:36.995Z,100061.56
2023-01-07T23:24:09.718Z,100062.44
2023-01-07T23:26:39.754Z,100050.16
2023-01-07T23:29:09.953Z,100057.16
2023-01-07T23:31:40.110Z,100057.22
2023-01-07T23:34:10.303Z,100044.97
2023-01-07T23:36:40.530Z,100046.75
2023-01-07T23:39:13.086Z,100034.53
2023-01-07T23:41:42.830Z,100042.41
2023-01-07T23:44:12.647Z,100043.31
2023-01-07T23:46:42.441Z,100044.22
2023-01-07T23:49:12.368Z,100046.03
2023-01-07T23:51:43.533Z,100050.47
2023-01-07T23:54:16.028Z,100042.59
2023-01-07T23:56:45.787Z,100047.84
2023-01-07T23:59:15.832Z,100048.72
